Time;durP1;ratioP1;P1;durP2;ratioP2;P2;SDS_P1;SDS_P2;PMS_P1;PMS_P2;Temp;Humidity;BMP_temperature;BMP_pressure;BME280_temperature;BME280_humidity;BME280_pressure;Samples;Min_cycle;Max_cycle;Signal;HPM_P1;HPM_P2
2023/09/19 00:00:30;;;;;;;648.00;201.23;;;;;;;;;;5066712;28;20040;-64
2023/09/19 00:02:59;;;;;;;645.13;194.48;;;;;;;;;;5066022;28;20059;-60
2023/09/19 00:05:28;;;;;;;651.75;202.43;;;;;;;;;;5064795;28;20016;-59
2023/09/19 00:07:54;;;;;;;642.65;201.52;;;;;;;;;;5065296;28;20035;-61
2023/09/19 00:10:21;;;;;;;651.67;198.63;;;;;;;;;;5066462;28;20016;-62
2023/09/19 00:12:46;;;;;;;648.45;220.45;;;;;;;;;;5067241;28;20385;-62
2023/09/19 00:15:12;;;;;;;669.47;280.60;;;;;;;;;;5063127;28;20028;-63
2023/09/19 00:17:37;;;;;;;673.83;267.25;;;;;;;;;;5059791;28;20407;-56
2023/09/19 00:20:11;;;;;;;640.17;201.90;;;;;;;;;;5064344;28;20028;-59
2023/09/19 00:22:39;;;;;;;642.55;200.88;;;;;;;;;;5046535;28;20539;-61
2023/09/19 00:25:05;;;;;;;641.17;197.23;;;;;;;;;;5048471;28;20233;-63
2023/09/19 00:27:30;;;;;;;633.72;192.80;;;;;;;;;;5043809;28;20036;-60
2023/09/19 00:29:56;;;;;;;636.30;202.75;;;;;;;;;;5048679;28;20017;-61
2023/09/19 00:32:21;;;;;;;640.28;204.27;;;;;;;;;;5048360;28;20063;-63
2023/09/19 00:34:46;;;;;;;643.03;205.82;;;;;;;;;;5048466;28;20027;-61
2023/09/19 00:37:12;;;;;;;642.63;199.52;;;;;;;;;;5046347;28;20522;-59
2023/09/19 00:39:37;;;;;;;644.97;199.40;;;;;;;;;;5054587;28;20009;-57
2023/09/19 00:42:05;;;;;;;637.40;198.10;;;;;;;;;;5061364;28;20016;-61
2023/09/19 00:44:30;;;;;;;637.67;197.73;;;;;;;;;;5064317;28;20290;-62
2023/09/19 00:46:55;;;;;;;636.25;201.05;;;;;;;;;;5048404;28;20737;-56
2023/09/19 00:49:22;;;;;;;637.67;198.75;;;;;;;;;;5045608;28;20028;-61
2023/09/19 00:51:48;;;;;;;638.15;196.68;;;;;;;;;;5063730;28;20016;-58
2023/09/19 00:54:18;;;;;;;638.30;194.75;;;;;;;;;;5065986;28;20085;-58
2023/09/19 00:56:44;;;;;;;638.75;196.65;;;;;;;;;;5064707;28;20095;-63
2023/09/19 00:59:10;;;;;;;643.33;205.52;;;;;;;;;;5066055;28;20608;-61
2023/09/19 01:01:35;;;;;;;640.13;206.52;;;;;;;;;;5049894;28;20132;-63
2023/09/19 01:04:00;;;;;;;636.83;194.93;;;;;;;;;;5045895;28;20322;-60
2023/09/19 01:06:26;;;;;;;639.15;203.32;;;;;;;;;;5061021;28;20033;-60
2023/09/19 01:08:51;;;;;;;634.58;196.85;;;;;;;;;;5066296;28;20078;-57
2023/09/19 01:11:24;;;;;;;641.97;203.50;;;;;;;;;;5045747;28;20382;-59
2023/09/19 01:14:08;;;;;;;649.53;204.57;;;;;;;;;;5065998;28;20034;-59
2023/09/19 01:16:39;;;;;;;636.78;196.32;;;;;;;;;;5048733;28;20031;-59
2023/09/19 01:19:13;;;;;;;635.58;194.38;;;;;;;;;;5046153;28;20027;-62
2023/09/19 01:21:50;;;;;;;642.47;203.52;;;;;;;;;;5062404;28;20055;-61
2023/09/19 01:24:36;;;;;;;636.95;199.70;;;;;;;;;;5066190;28;20020;-60
2023/09/19 01:27:04;;;;;;;641.78;202.25;;;;;;;;;;5065525;28;20107;-58
2023/09/19 01:29:43;;;;;;;635.97;193.82;;;;;;;;;;5064343;28;20043;-62
2023/09/19 01:32:09;;;;;;;636.50;196.20;;;;;;;;;;5056973;28;20102;-63
2023/09/19 01:35:04;;;;;;;646.50;207.18;;;;;;;;;;5064212;28;20031;-56
2023/09/19 01:37:29;;;;;;;639.08;200.02;;;;;;;;;;5002347;28;20565;-63
2023/09/19 01:39:57;;;;;;;639.53;196.73;;;;;;;;;;5002559;28;20030;-59
2023/09/19 01:42:37;;;;;;;649.83;207.20;;;;;;;;;;5002344;28;20464;-63
2023/09/19 01:45:04;;;;;;;;;;;;;;;;;;5002698;28;20291;-60
2023/09/19 01:47:29;;;;;;;641.42;201.13;;;;;;;;;;5002437;28;20469;-55
2023/09/19 01:50:18;;;;;;;644.28;203.65;;;;;;;;;;4996580;28;20045;-59
2023/09/19 01:53:04;;;;;;;643.85;201.25;;;;;;;;;;4983459;28;20041;-63
2023/09/19 01:55:30;;;;;;;645.03;199.90;;;;;;;;;;4982022;28;20039;-56
2023/09/19 01:58:06;;;;;;;646.38;208.98;;;;;;;;;;4979330;28;20054;-64
2023/09/19 02:00:32;;;;;;;635.40;198.45;;;;;;;;;;4973396;28;20054;-62
2023/09/19 02:02:59;;;;;;;644.00;206.30;;;;;;;;;;4982150;28;20042;-57
2023/09/19 02:05:25;;;;;;;635.45;194.32;;;;;;;;;;4980991;28;20065;-57
2023/09/19 02:07:51;;;;;;;644.13;202.07;;;;;;;;;;4983161;28;20062;-58
2023/09/19 02:10:17;;;;;;;638.63;192.93;;;;;;;;;;4982244;28;20097;-57
2023/09/19 02:12:42;;;;;;;642.17;201.80;;;;;;;;;;4982991;28;20038;-62
2023/09/19 02:15:07;;;;;;;638.55;191.52;;;;;;;;;;5016930;28;20025;-56
2023/09/19 02:17:33;;;;;;;642.05;202.75;;;;;;;;;;5012317;28;20501;-61
2023/09/19 02:20:00;;;;;;;634.42;187.15;;;;;;;;;;5020115;28;20041;-64
2023/09/19 02:22:26;;;;;;;641.63;195.48;;;;;;;;;;5021393;28;20061;-59
2023/09/19 02:24:53;;;;;;;641.08;191.20;;;;;;;;;;5021251;28;20037;-62
2023/09/19 02:27:19;;;;;;;638.47;198.73;;;;;;;;;;5002621;28;20132;-58
2023/09/19 02:29:44;;;;;;;640.72;201.48;;;;;;;;;;5002852;28;20125;-63
2023/09/19 02:32:10;;;;;;;639.80;190.90;;;;;;;;;;5019839;28;20044;-63
2023/09/19 02:34:36;;;;;;;636.58;189.48;;;;;;;;;;5064764;28;20410;-56
2023/09/19 02:37:04;;;;;;;635.15;192.35;;;;;;;;;;5047359;28;20029;-61
2023/09/19 02:39:30;;;;;;;636.00;195.73;;;;;;;;;;5045120;28;20056;-59
2023/09/19 02:41:55;;;;;;;641.70;198.75;;;;;;;;;;5058170;28;20481;-55
2023/09/19 02:44:20;;;;;;;642.58;202.00;;;;;;;;;;5068911;28;20052;-60
2023/09/19 02:46:46;;;;;;;641.40;199.13;;;;;;;;;;5051202;28;20025;-61
2023/09/19 02:49:13;;;;;;;638.92;197.05;;;;;;;;;;5048945;28;20041;-63
2023/09/19 02:51:38;;;;;;;639.45;193.27;;;;;;;;;;5065293;28;20020;-62
2023/09/19 02:54:03;;;;;;;639.00;195.73;;;;;;;;;;5068858;28;20032;-60
2023/09/19 02:56:30;;;;;;;640.53;190.93;;;;;;;;;;5064295;28;20111;-60
2023/09/19 02:58:55;;;;;;;636.92;192.70;;;;;;;;;;5068578;28;20141;-56
2023/09/19 03:01:20;;;;;;;639.75;194.82;;;;;;;;;;5051941;28;20498;-58
2023/09/19 03:03:46;;;;;;;654.53;202.90;;;;;;;;;;5047925;28;20028;-63
2023/09/19 03:06:13;;;;;;;636.47;192.38;;;;;;;;;;5050112;28;20490;-55
2023/09/19 03:08:39;;;;;;;638.22;198.07;;;;;;;;;;5048351;28;20025;-62
2023/09/19 03:11:05;;;;;;;638.90;198.35;;;;;;;;;;5050631;28;20021;-63
2023/09/19 03:13:31;;;;;;;637.13;192.40;;;;;;;;;;5047205;28;20033;-56
2023/09/19 03:15:58;;;;;;;646.25;199.65;;;;;;;;;;5059145;28;20072;-59
2023/09/19 03:18:23;;;;;;;641.00;195.52;;;;;;;;;;5068696;28;20017;-63
2023/09/19 03:20:53;;;;;;;634.70;189.27;;;;;;;;;;5067416;28;20039;-60
2023/09/19 03:23:19;;;;;;;638.38;194.45;;;;;;;;;;5068323;28;20070;-54
2023/09/19 03:25:44;;;;;;;637.08;186.85;;;;;;;;;;5066560;28;20506;-62
2023/09/19 03:28:09;;;;;;;637.03;184.88;;;;;;;;;;5068279;28;20588;-58
2023/09/19 03:30:35;;;;;;;641.97;194.48;;;;;;;;;;5067243;28;20031;-61
2023/09/19 03:33:00;;;;;;;643.45;195.73;;;;;;;;;;5057467;28;20024;-63
2023/09/19 03:35:25;;;;;;;636.60;189.10;;;;;;;;;;5054269;28;20055;-57
2023/09/19 03:37:52;;;;;;;642.97;189.93;;;;;;;;;;5058976;28;20106;-61
2023/09/19 03:40:20;;;;;;;636.42;185.95;;;;;;;;;;5053074;28;20020;-59
2023/09/19 03:42:46;;;;;;;640.40;188.38;;;;;;;;;;5067861;28;20030;-62
2023/09/19 03:45:12;;;;;;;635.53;187.00;;;;;;;;;;5064215;28;20407;-59
2023/09/19 03:47:38;;;;;;;637.25;190.10;;;;;;;;;;5066857;28;20012;-63
2023/09/19 03:50:04;;;;;;;639.40;194.23;;;;;;;;;;5065948;28;20497;-59
2023/09/19 03:52:29;;;;;;;644.17;193.27;;;;;;;;;;5066077;28;20085;-60
2023/09/19 03:54:55;;;;;;;635.22;183.82;;;;;;;;;;5064683;28;20687;-60
2023/09/19 03:57:20;;;;;;;643.78;186.10;;;;;;;;;;5060681;28;20465;-62
2023/09/19 03:59:46;;;;;;;644.65;191.77;;;;;;;;;;5065520;28;20060;-60
2023/09/19 04:02:21;;;;;;;639.58;187.18;;;;;;;;;;5046614;28;20073;-62
2023/09/19 04:04:47;;;;;;;640.15;185.18;;;;;;;;;;5048973;28;20024;-62
2023/09/19 04:07:12;;;;;;;645.47;183.43;;;;;;;;;;5046090;28;20083;-63
2023/09/19 04:09:38;;;;;;;632.60;181.60;;;;;;;;;;5048470;28;20060;-60
2023/09/19 04:12:03;;;;;;;636.38;182.27;;;;;;;;;;5060894;28;20454;-63
2023/09/19 04:14:29;;;;;;;633.28;182.30;;;;;;;;;;5046573;28;20055;-59
2023/09/19 04:16:54;;;;;;;633.85;181.70;;;;;;;;;;5062155;28;20816;-61
2023/09/19 04:19:22;;;;;;;634.05;183.00;;;;;;;;;;5065517;28;20052;-59
2023/09/19 04:21:47;;;;;;;638.65;189.05;;;;;;;;;;5065213;28;20067;-63
2023/09/19 04:24:13;;;;;;;639.58;185.05;;;;;;;;;;5066210;28;20024;-59
2023/09/19 04:26:38;;;;;;;641.33;183.50;;;;;;;;;;5064265;28;20048;-57
2023/09/19 04:29:04;;;;;;;637.80;185.55;;;;;;;;;;5052474;28;20355;-59
2023/09/19 04:31:30;;;;;;;635.80;179.13;;;;;;;;;;5047272;28;20044;-57
2023/09/19 04:33:55;;;;;;;641.65;185.95;;;;;;;;;;5042810;28;20860;-53
2023/09/19 04:36:22;;;;;;;641.45;186.07;;;;;;;;;;5049273;28;20043;-59
2023/09/19 04:38:47;;;;;;;645.05;189.55;;;;;;;;;;5061983;28;20024;-61
2023/09/19 04:41:14;;;;;;;638.10;187.27;;;;;;;;;;5050505;28;20076;-62
2023/09/19 04:43:40;;;;;;;642.75;189.02;;;;;;;;;;4999630;28;1232767;-62
2023/09/19 04:46:06;;;;;;;636.85;190.15;;;;;;;;;;5046514;28;20041;-61
2023/09/19 04:48:31;;;;;;;642.53;184.95;;;;;;;;;;5043955;28;20029;-57
2023/09/19 04:50:57;;;;;;;638.22;183.70;;;;;;;;;;5054111;28;20035;-59
2023/09/19 04:53:22;;;;;;;650.00;195.43;;;;;;;;;;5063730;28;20398;-61
2023/09/19 04:55:52;;;;;;;643.85;193.35;;;;;;;;;;5058069;28;20108;-60
2023/09/19 04:58:19;;;;;;;639.17;184.95;;;;;;;;;;5026966;28;20048;-60
2023/09/19 05:00:44;;;;;;;640.13;183.35;;;;;;;;;;5052739;28;20088;-57
2023/09/19 05:03:10;;;;;;;652.42;191.85;;;;;;;;;;5048434;28;20041;-58
2023/09/19 05:05:35;;;;;;;638.58;188.30;;;;;;;;;;5046878;28;20052;-60
2023/09/19 05:08:00;;;;;;;646.30;199.15;;;;;;;;;;5046309;28;20421;-62
2023/09/19 05:10:25;;;;;;;641.13;193.38;;;;;;;;;;5061730;28;20029;-54
2023/09/19 05:12:54;;;;;;;647.65;193.20;;;;;;;;;;5046229;28;20009;-61
2023/09/19 05:15:19;;;;;;;645.75;195.18;;;;;;;;;;5047596;28;20017;-62
2023/09/19 05:17:51;;;;;;;644.13;196.93;;;;;;;;;;5046307;28;20445;-59
2023/09/19 05:20:18;;;;;;;639.30;194.60;;;;;;;;;;5047611;28;20037;-59
2023/09/19 05:22:44;;;;;;;641.10;196.02;;;;;;;;;;5063518;28;20029;-55
2023/09/19 05:25:10;;;;;;;638.60;190.45;;;;;;;;;;5061556;28;20498;-58
2023/09/19 05:27:35;;;;;;;641.58;184.13;;;;;;;;;;5046104;28;20028;-58
2023/09/19 05:30:01;;;;;;;636.83;191.23;;;;;;;;;;5048944;28;20073;-58
2023/09/19 05:32:26;;;;;;;639.97;191.30;;;;;;;;;;5064309;28;20029;-60
2023/09/19 05:34:53;;;;;;;644.65;189.55;;;;;;;;;;5054127;28;20055;-58
2023/09/19 05:37:18;;;;;;;644.17;193.65;;;;;;;;;;5066087;28;20024;-58
2023/09/19 05:39:44;;;;;;;648.80;198.32;;;;;;;;;;5066754;28;20384;-59
2023/09/19 05:42:09;;;;;;;637.42;186.95;;;;;;;;;;5053202;28;20043;-61
2023/09/19 05:44:35;;;;;;;632.10;181.50;;;;;;;;;;5059308;28;20550;-59
2023/09/19 05:47:01;;;;;;;646.45;204.73;;;;;;;;;;5053373;28;20024;-61
2023/09/19 05:49:27;;;;;;;639.22;198.90;;;;;;;;;;5056128;28;20090;-60
2023/09/19 05:51:54;;;;;;;639.00;201.05;;;;;;;;;;5060463;28;20469;-60
2023/09/19 05:54:20;;;;;;;642.90;197.18;;;;;;;;;;5064887;28;20025;-61
2023/09/19 05:56:47;;;;;;;655.45;218.57;;;;;;;;;;5054851;28;20025;-61
2023/09/19 05:59:14;;;;;;;651.92;213.93;;;;;;;;;;5059050;28;20029;-62
2023/09/19 06:01:39;;;;;;;644.53;212.07;;;;;;;;;;5073417;28;20549;-61
2023/09/19 06:04:04;;;;;;;664.28;220.50;;;;;;;;;;5056511;28;20036;-61
2023/09/19 06:06:30;;;;;;;648.95;217.52;;;;;;;;;;5049871;28;20028;-61
2023/09/19 06:08:55;;;;;;;674.63;225.43;;;;;;;;;;5051136;28;22157;-61
2023/09/19 06:11:21;;;;;;;654.05;238.82;;;;;;;;;;5057349;28;20039;-62
2023/09/19 06:13:51;;;;;;;652.13;231.13;;;;;;;;;;5061120;28;20028;-62
2023/09/19 06:16:19;;;;;;;663.05;254.48;;;;;;;;;;5046126;28;20017;-61
2023/09/19 06:18:45;;;;;;;662.80;239.07;;;;;;;;;;5048832;28;20027;-58
2023/09/19 06:21:11;;;;;;;667.35;261.40;;;;;;;;;;5045657;28;20025;-62
2023/09/19 06:23:36;;;;;;;663.42;260.77;;;;;;;;;;5053100;28;20397;-59
2023/09/19 06:26:01;;;;;;;660.03;262.90;;;;;;;;;;5044415;28;20663;-59
2023/09/19 06:28:28;;;;;;;658.72;261.85;;;;;;;;;;5045894;28;20545;-60
2023/09/19 06:30:54;;;;;;;667.63;282.48;;;;;;;;;;5054826;28;20054;-60
2023/09/19 06:33:21;;;;;;;671.17;294.42;;;;;;;;;;5054370;28;20424;-60
2023/09/19 06:35:47;;;;;;;663.65;288.23;;;;;;;;;;5058691;28;20035;-61
2023/09/19 06:38:12;;;;;;;666.00;296.52;;;;;;;;;;5050008;28;20032;-60
2023/09/19 06:40:38;;;;;;;667.78;299.17;;;;;;;;;;5055813;28;20044;-61
2023/09/19 06:43:04;;;;;;;668.92;306.67;;;;;;;;;;5060547;28;20130;-57
2023/09/19 06:45:31;;;;;;;678.22;327.17;;;;;;;;;;5088096;28;20049;-59
2023/09/19 06:47:57;;;;;;;675.38;326.13;;;;;;;;;;5058238;28;20016;-58
2023/09/19 06:50:23;;;;;;;679.92;340.55;;;;;;;;;;5061523;28;20028;-58
2023/09/19 06:52:53;;;;;;;684.17;351.13;;;;;;;;;;5052080;28;20115;-59
2023/09/19 06:55:19;;;;;;;690.10;362.17;;;;;;;;;;5055400;28;20021;-56
2023/09/19 06:57:45;;;;;;;689.55;362.42;;;;;;;;;;5048167;28;20016;-57
2023/09/19 07:00:24;;;;;;;696.88;372.45;;;;;;;;;;5044705;28;20386;-57
2023/09/19 07:03:00;;;;;;;701.25;380.13;;;;;;;;;;5061517;28;20025;-57
2023/09/19 07:05:27;;;;;;;688.47;382.60;;;;;;;;;;5056002;28;20089;-58
2023/09/19 07:07:54;;;;;;;685.75;368.73;;;;;;;;;;5062264;28;20539;-56
2023/09/19 07:10:23;;;;;;;680.65;354.90;;;;;;;;;;5065523;28;20027;-58
2023/09/19 07:12:52;;;;;;;683.58;354.58;;;;;;;;;;5055008;28;20097;-57
2023/09/19 07:15:18;;;;;;;686.47;339.30;;;;;;;;;;5053172;28;20024;-60
2023/09/19 07:17:43;;;;;;;675.75;323.02;;;;;;;;;;5058936;28;20465;-61
2023/09/19 07:20:10;;;;;;;676.03;325.85;;;;;;;;;;5058813;28;20107;-58
2023/09/19 07:22:39;;;;;;;673.42;312.75;;;;;;;;;;5052483;28;20044;-61
2023/09/19 07:25:04;;;;;;;676.83;312.40;;;;;;;;;;5051816;28;20070;-60
2023/09/19 07:27:29;;;;;;;682.63;315.48;;;;;;;;;;5054075;28;20447;-59
2023/09/19 07:29:55;;;;;;;680.72;311.50;;;;;;;;;;5057485;28;20024;-58
2023/09/19 07:32:20;;;;;;;674.80;304.67;;;;;;;;;;5054923;28;20025;-61
2023/09/19 07:34:45;;;;;;;670.42;302.58;;;;;;;;;;5059847;28;20506;-56
2023/09/19 07:37:13;;;;;;;662.50;291.92;;;;;;;;;;5056965;28;20029;-60
2023/09/19 07:39:40;;;;;;;659.75;280.20;;;;;;;;;;5057104;28;20027;-58
2023/09/19 07:42:07;;;;;;;658.03;273.95;;;;;;;;;;5056263;28;20038;-58
2023/09/19 07:44:32;;;;;;;657.92;260.60;;;;;;;;;;5057366;28;20144;-57
2023/09/19 07:46:58;;;;;;;653.58;250.23;;;;;;;;;;5057743;28;20108;-57
2023/09/19 07:49:23;;;;;;;655.78;246.32;;;;;;;;;;5061443;28;20079;-60
2023/09/19 07:51:48;;;;;;;652.50;248.98;;;;;;;;;;5052668;28;20032;-60
2023/09/19 07:54:14;;;;;;;653.15;239.52;;;;;;;;;;5057067;28;20082;-58
2023/09/19 07:56:40;;;;;;;649.80;232.32;;;;;;;;;;5063658;28;20102;-57
2023/09/19 07:59:05;;;;;;;649.53;235.55;;;;;;;;;;5053400;28;20081;-60
2023/09/19 08:01:31;;;;;;;643.53;221.90;;;;;;;;;;5055818;28;20021;-61
2023/09/19 08:03:56;;;;;;;636.03;205.52;;;;;;;;;;5055780;28;20020;-57
2023/09/19 08:06:22;;;;;;;646.80;225.48;;;;;;;;;;5062855;28;20101;-61
2023/09/19 08:08:50;;;;;;;643.42;214.13;;;;;;;;;;5057322;28;20033;-62
2023/09/19 08:11:21;;;;;;;641.38;206.02;;;;;;;;;;5061233;28;20111;-60
2023/09/19 08:13:48;;;;;;;636.38;197.27;;;;;;;;;;5059879;28;20039;-62
2023/09/19 08:16:14;;;;;;;635.03;206.48;;;;;;;;;;5051817;28;20486;-58
2023/09/19 08:18:40;;;;;;;639.42;206.18;;;;;;;;;;5060574;28;20034;-59
2023/09/19 08:21:10;;;;;;;638.90;210.98;;;;;;;;;;5058606;28;20028;-57
2023/09/19 08:23:36;;;;;;;640.38;208.60;;;;;;;;;;5058816;28;20034;-60
2023/09/19 08:26:07;;;;;;;641.92;206.75;;;;;;;;;;5053167;28;20662;-60
2023/09/19 08:28:33;;;;;;;633.50;201.43;;;;;;;;;;5056142;28;20017;-58
2023/09/19 08:31:04;;;;;;;645.95;199.52;;;;;;;;;;5058374;28;20038;-58
2023/09/19 08:33:30;;;;;;;640.92;204.85;;;;;;;;;;5056358;28;20029;-59
2023/09/19 08:35:55;;;;;;;632.80;190.88;;;;;;;;;;5031631;28;20064;-55
2023/09/19 08:38:21;;;;;;;637.13;197.88;;;;;;;;;;5057618;28;20717;-55
2023/09/19 08:40:46;;;;;;;635.92;198.70;;;;;;;;;;5056477;28;20016;-61
2023/09/19 08:43:12;;;;;;;636.60;198.00;;;;;;;;;;5058774;28;20028;-57
2023/09/19 08:45:39;;;;;;;648.72;201.80;;;;;;;;;;5054099;28;20040;-59
2023/09/19 08:48:13;;;;;;;635.83;202.70;;;;;;;;;;5056334;28;20774;-61
2023/09/19 08:50:49;;;;;;;630.60;192.73;;;;;;;;;;5054426;28;20012;-61
2023/09/19 08:53:20;;;;;;;635.10;205.13;;;;;;;;;;5049576;28;20044;-62
2023/09/19 08:55:48;;;;;;;638.38;200.15;;;;;;;;;;5055415;28;20501;-62
2023/09/19 08:58:16;;;;;;;636.83;207.45;;;;;;;;;;5055967;28;20119;-58
2023/09/19 09:00:45;;;;;;;648.88;217.50;;;;;;;;;;5053361;28;20048;-61
2023/09/19 09:03:10;;;;;;;647.08;219.15;;;;;;;;;;5054612;28;20072;-60
2023/09/19 09:05:36;;;;;;;641.75;208.80;;;;;;;;;;5056619;28;20453;-57
2023/09/19 09:08:03;;;;;;;640.78;208.88;;;;;;;;;;5059052;28;20473;-57
2023/09/19 09:10:29;;;;;;;634.47;201.93;;;;;;;;;;5058146;28;20060;-59
2023/09/19 09:12:57;;;;;;;638.70;201.00;;;;;;;;;;5052001;28;20404;-58
2023/09/19 09:15:23;;;;;;;634.63;194.02;;;;;;;;;;5054997;28;20391;-60
2023/09/19 09:17:50;;;;;;;638.60;199.43;;;;;;;;;;5059515;28;20032;-62
2023/09/19 09:20:15;;;;;;;632.72;198.15;;;;;;;;;;5054512;28;20017;-57
2023/09/19 09:22:50;;;;;;;639.65;211.80;;;;;;;;;;5037269;28;21269;-60
2023/09/19 09:25:18;;;;;;;643.13;213.55;;;;;;;;;;5052724;28;20021;-60
2023/09/19 09:27:43;;;;;;;637.65;212.35;;;;;;;;;;5055252;28;20444;-61
2023/09/19 09:30:08;;;;;;;641.58;219.95;;;;;;;;;;5053667;28;20032;-62
2023/09/19 09:32:36;;;;;;;647.55;224.05;;;;;;;;;;5062168;28;20070;-58
2023/09/19 09:35:02;;;;;;;641.65;224.02;;;;;;;;;;5072303;28;20416;-61
2023/09/19 09:37:30;;;;;;;645.00;227.85;;;;;;;;;;5058834;28;20763;-63
2023/09/19 09:39:58;;;;;;;650.33;234.57;;;;;;;;;;5059598;28;20031;-62
2023/09/19 09:42:31;;;;;;;654.97;258.50;;;;;;;;;;5060390;28;20112;-59
2023/09/19 09:45:17;;;;;;;663.03;275.35;;;;;;;;;;5062243;28;20044;-57
2023/09/19 09:47:55;;;;;;;663.08;274.23;;;;;;;;;;5057124;28;20028;-62
2023/09/19 09:50:56;;;;;;;665.35;286.10;;;;;;;;;;5060243;28;20086;-60
2023/09/19 09:53:30;;;;;;;659.25;284.33;;;;;;;;;;5075903;28;20032;-63
2023/09/19 09:56:03;;;;;;;659.42;292.75;;;;;;;;;;5057500;28;20028;-61
2023/09/19 09:58:35;;;;;;;660.22;296.75;;;;;;;;;;5061371;28;20111;-60
2023/09/19 10:01:08;;;;;;;658.63;304.33;;;;;;;;;;5060827;28;20397;-61
2023/09/19 10:03:40;;;;;;;661.92;305.92;;;;;;;;;;5054873;28;20029;-61
2023/09/19 10:06:20;;;;;;;665.45;317.27;;;;;;;;;;5057331;28;20024;-60
2023/09/19 10:08:45;;;;;;;;;;;;;;;;;;5052813;28;20020;-62
2023/09/19 10:11:16;;;;;;;658.70;301.88;;;;;;;;;;5057384;28;19916;-62
2023/09/19 10:13:42;;;;;;;666.47;315.60;;;;;;;;;;5064857;28;20029;-59
2023/09/19 10:16:10;;;;;;;666.00;313.10;;;;;;;;;;5052016;28;20028;-60
2023/09/19 10:18:36;;;;;;;662.95;310.38;;;;;;;;;;5060205;28;20388;-62
2023/09/19 10:21:03;;;;;;;662.28;310.23;;;;;;;;;;5053346;28;20040;-61
2023/09/19 10:23:34;;;;;;;659.67;303.42;;;;;;;;;;5044782;28;20056;-62
2023/09/19 10:26:01;;;;;;;663.53;311.85;;;;;;;;;;5053801;28;20076;-60
2023/09/19 10:28:27;;;;;;;665.17;312.45;;;;;;;;;;5065439;28;20155;-62
2023/09/19 10:30:53;;;;;;;663.47;309.02;;;;;;;;;;5054459;28;20029;-58
2023/09/19 10:33:22;;;;;;;658.85;297.52;;;;;;;;;;5061248;28;20021;-61
2023/09/19 10:35:48;;;;;;;654.15;287.60;;;;;;;;;;5053955;28;20021;-60
2023/09/19 10:38:21;;;;;;;661.10;307.40;;;;;;;;;;5047829;28;20029;-59
2023/09/19 10:40:51;;;;;;;659.45;310.33;;;;;;;;;;5054269;28;20024;-57
2023/09/19 10:43:18;;;;;;;662.38;307.83;;;;;;;;;;5062704;28;20524;-59
2023/09/19 10:45:44;;;;;;;658.20;307.85;;;;;;;;;;5055859;28;20036;-62
2023/09/19 10:48:10;;;;;;;662.60;323.73;;;;;;;;;;5045048;28;20096;-62
2023/09/19 10:50:55;;;;;;;667.83;332.25;;;;;;;;;;5053449;28;20481;-62
2023/09/19 10:53:22;;;;;;;663.85;335.13;;;;;;;;;;5034620;28;20490;-60
2023/09/19 10:55:50;;;;;;;667.95;345.67;;;;;;;;;;5039029;28;20167;-60
2023/09/19 10:58:24;;;;;;;665.10;344.02;;;;;;;;;;5027432;28;20033;-62
2023/09/19 11:00:54;;;;;;;671.55;353.83;;;;;;;;;;5027743;28;20035;-60
2023/09/19 11:03:20;;;;;;;670.22;357.27;;;;;;;;;;5041817;28;20120;-61
2023/09/19 11:06:00;;;;;;;673.47;361.92;;;;;;;;;;5019465;28;20041;-61
2023/09/19 11:08:26;;;;;;;678.47;370.95;;;;;;;;;;5039076;28;20074;-61
2023/09/19 11:10:51;;;;;;;683.75;371.58;;;;;;;;;;5044531;28;20040;-63
2023/09/19 11:13:26;;;;;;;680.63;376.45;;;;;;;;;;5042818;28;20030;-61
2023/09/19 11:15:57;;;;;;;678.15;376.58;;;;;;;;;;5045344;28;20021;-62
2023/09/19 11:18:41;;;;;;;675.65;381.02;;;;;;;;;;5036702;28;20505;-59
2023/09/19 11:21:24;;;;;;;676.75;384.00;;;;;;;;;;5043627;28;20111;-60
2023/09/19 11:24:25;;;;;;;674.28;378.83;;;;;;;;;;5042249;28;20033;-61
2023/09/19 11:26:52;;;;;;;677.00;380.42;;;;;;;;;;5001788;28;20030;-64
2023/09/19 11:29:26;;;;;;;686.28;410.33;;;;;;;;;;5003329;28;20518;-61
2023/09/19 11:32:00;;;;;;;685.08;404.05;;;;;;;;;;4995350;28;20030;-58
2023/09/19 11:34:47;;;;;;;681.63;398.80;;;;;;;;;;5000831;28;20479;-60
2023/09/19 11:37:13;;;;;;;677.50;387.08;;;;;;;;;;4998821;28;20033;-60
2023/09/19 11:39:38;;;;;;;681.13;397.30;;;;;;;;;;5002178;28;20087;-61
2023/09/19 11:42:23;;;;;;;683.25;390.42;;;;;;;;;;4998766;28;20118;-59
2023/09/19 11:44:49;;;;;;;676.72;380.23;;;;;;;;;;4996322;28;20104;-59
2023/09/19 11:47:18;;;;;;;668.25;362.17;;;;;;;;;;4995531;28;20034;-59
2023/09/19 11:49:43;;;;;;;;;;;;;;;;;;4996290;28;20125;-62
2023/09/19 11:52:08;;;;;;;672.43;370.40;;;;;;;;;;4993075;28;19946;-63
2023/09/19 11:54:36;;;;;;;680.42;376.10;;;;;;;;;;4993324;28;20037;-60
2023/09/19 11:57:02;;;;;;;672.25;365.92;;;;;;;;;;4996026;28;20026;-60
2023/09/19 11:59:29;;;;;;;672.90;364.13;;;;;;;;;;4998545;28;20018;-60
2023/09/19 12:01:58;;;;;;;668.70;350.98;;;;;;;;;;5053819;28;20114;-62
2023/09/19 12:04:41;;;;;;;671.35;354.27;;;;;;;;;;5059535;28;20098;-62
2023/09/19 12:07:16;;;;;;;663.75;345.70;;;;;;;;;;5055452;28;20044;-60
2023/09/19 12:09:47;;;;;;;675.05;358.67;;;;;;;;;;5053209;28;20067;-59
2023/09/19 12:12:19;;;;;;;677.30;344.00;;;;;;;;;;5060327;28;20033;-61
2023/09/19 12:14:48;;;;;;;678.83;344.25;;;;;;;;;;5055537;28;20029;-61
2023/09/19 12:17:13;;;;;;;672.03;359.25;;;;;;;;;;5058485;28;20054;-62
2023/09/19 12:19:39;;;;;;;676.08;366.30;;;;;;;;;;5056128;28;20025;-60
2023/09/19 12:22:04;;;;;;;670.88;358.70;;;;;;;;;;5054380;28;20021;-60
2023/09/19 12:24:30;;;;;;;674.35;363.60;;;;;;;;;;5060873;28;20489;-56
2023/09/19 12:27:01;;;;;;;679.35;375.00;;;;;;;;;;5059844;28;20036;-60
2023/09/19 12:29:27;;;;;;;671.97;361.13;;;;;;;;;;5063175;28;20025;-61
2023/09/19 12:32:03;;;;;;;661.60;340.85;;;;;;;;;;5062364;28;20410;-61
2023/09/19 12:34:29;;;;;;;674.85;363.48;;;;;;;;;;5057823;28;20025;-60
2023/09/19 12:37:06;;;;;;;671.08;361.88;;;;;;;;;;5060290;28;20025;-57
2023/09/19 12:39:31;;;;;;;672.50;357.95;;;;;;;;;;5059606;28;20431;-60
2023/09/19 12:41:56;;;;;;;663.92;348.90;;;;;;;;;;5060638;28;20036;-60
2023/09/19 12:44:24;;;;;;;668.40;359.77;;;;;;;;;;5062231;28;20056;-57
2023/09/19 12:46:50;;;;;;;670.05;358.23;;;;;;;;;;5063531;28;20033;-58
2023/09/19 12:49:19;;;;;;;681.28;376.15;;;;;;;;;;5056061;28;20061;-61
2023/09/19 12:51:48;;;;;;;681.03;374.60;;;;;;;;;;5060433;28;20123;-60
2023/09/19 12:54:16;;;;;;;666.78;344.25;;;;;;;;;;5053908;28;20032;-57
2023/09/19 12:56:45;;;;;;;;;;;;;;;;;;5059884;28;20430;-56
2023/09/19 12:59:13;;;;;;;662.10;285.02;;;;;;;;;;5063933;28;20362;-62
2023/09/19 13:01:43;;;;;;;693.53;287.30;;;;;;;;;;5062442;28;20024;-62
2023/09/19 13:04:19;;;;;;;652.45;292.20;;;;;;;;;;5063853;28;20073;-61
2023/09/19 13:06:48;;;;;;;655.22;293.70;;;;;;;;;;5061456;28;20024;-60
2023/09/19 13:09:14;;;;;;;657.17;301.35;;;;;;;;;;5052768;28;20432;-56
2023/09/19 13:11:42;;;;;;;658.25;305.10;;;;;;;;;;5058574;28;20020;-54
2023/09/19 13:14:21;;;;;;;649.20;292.67;;;;;;;;;;5051549;28;20033;-60
2023/09/19 13:16:56;;;;;;;649.10;284.40;;;;;;;;;;5060870;28;20028;-60
2023/09/19 13:19:37;;;;;;;651.22;279.75;;;;;;;;;;5057837;28;20035;-58
2023/09/19 13:22:03;;;;;;;650.60;282.83;;;;;;;;;;5061391;28;20424;-62
2023/09/19 13:24:30;;;;;;;660.58;298.75;;;;;;;;;;5061761;28;20044;-62
2023/09/19 13:26:55;;;;;;;655.83;287.73;;;;;;;;;;5064109;28;20473;-60
2023/09/19 13:29:21;;;;;;;651.10;289.48;;;;;;;;;;5060876;28;20059;-59
2023/09/19 13:31:51;;;;;;;655.10;297.55;;;;;;;;;;5058281;28;20435;-61
2023/09/19 13:34:17;;;;;;;653.50;299.75;;;;;;;;;;5050996;28;20063;-60
2023/09/19 13:36:42;;;;;;;651.67;293.75;;;;;;;;;;5053992;28;20074;-62
2023/09/19 13:39:13;;;;;;;650.30;293.80;;;;;;;;;;5052123;28;20029;-58
2023/09/19 13:41:38;;;;;;;660.45;291.38;;;;;;;;;;5050208;28;20029;-62
2023/09/19 13:44:04;;;;;;;654.47;286.58;;;;;;;;;;5055334;28;20588;-58
2023/09/19 13:46:33;;;;;;;650.42;276.95;;;;;;;;;;5057824;28;20032;-63
2023/09/19 13:48:59;;;;;;;652.28;286.52;;;;;;;;;;5057571;28;20033;-59
2023/09/19 13:51:25;;;;;;;655.47;287.45;;;;;;;;;;5056613;28;20031;-58
2023/09/19 13:53:51;;;;;;;645.55;278.40;;;;;;;;;;5053841;28;20013;-57
2023/09/19 13:56:16;;;;;;;662.60;287.27;;;;;;;;;;5058574;28;20398;-61
2023/09/19 13:58:41;;;;;;;645.65;277.98;;;;;;;;;;5058846;28;20038;-63